Time;durP1;ratioP1;P1;durP2;ratioP2;P2;SDS_P1;SDS_P2;PMS_P1;PMS_P2;Temp;Humidity;BMP_temperature;BMP_pressure;BME280_temperature;BME280_humidity;BME280_pressure;Samples;Min_cycle;Max_cycle;Signal;HPM_P1;HPM_P2
2023/10/29 00:02:25;;;;;;;;;;;;;;;17.37;nan;100358.09;4968724;28;19929;-86
2023/10/29 00:04:56;;;;;;;;;;;;;;;17.36;nan;100360.00;4972798;28;20380;-86
2023/10/29 00:07:26;;;;;;;;;;;;;;;17.35;nan;100360.28;4972132;28;19922;-86
2023/10/29 00:09:56;;;;;;;;;;;;;;;17.31;nan;100348.47;4969618;28;20073;-86
2023/10/29 00:12:23;;;;;;;;;;;;;;;17.33;nan;100338.94;4968495;28;20314;-85
2023/10/29 00:14:48;;;;;;;;;;;;;;;17.36;nan;100342.94;4972431;28;20631;-86
2023/10/29 00:17:14;;;;;;;;;;;;;;;17.39;nan;100342.34;4966600;28;20169;-86
2023/10/29 00:19:40;;;;;;;;;;;;;;;17.40;nan;100344.72;4968305;28;20403;-86
2023/10/29 00:22:07;;;;;;;;;;;;;;;17.43;nan;100344.16;4968661;28;19925;-86
2023/10/29 00:24:34;;;;;;;;;;;;;;;17.42;nan;100337.13;4965708;28;20382;-86
2023/10/29 00:27:03;;;;;;;;;;;;;;;17.41;nan;100348.25;4962473;28;19933;-86
2023/10/29 00:29:31;;;;;;;;;;;;;;;17.43;nan;100343.34;4969141;28;19976;-86
2023/10/29 00:32:05;;;;;;;;;;;;;;;17.42;nan;100333.63;4969708;28;20405;-86
2023/10/29 00:34:33;;;;;;;;;;;;;;;17.37;nan;100334.50;4970658;28;19922;-86
2023/10/29 00:36:59;;;;;;;;;;;;;;;17.35;nan;100330.50;4969119;28;19945;-86
2023/10/29 00:39:24;;;;;;;;;;;;;;;17.27;nan;100334.75;4969064;28;20418;-86
2023/10/29 00:41:49;;;;;;;;;;;;;;;17.25;nan;100328.84;4969911;28;19929;-86
2023/10/29 00:44:17;;;;;;;;;;;;;;;17.25;nan;100323.41;4969121;28;19922;-86
2023/10/29 00:46:45;;;;;;;;;;;;;;;17.28;nan;100327.41;4971505;28;19933;-86
2023/10/29 00:49:11;;;;;;;;;;;;;;;17.35;nan;100325.09;4966097;28;19928;-86
2023/10/29 00:51:37;;;;;;;;;;;;;;;17.33;nan;100327.31;4968268;28;19922;-86
2023/10/29 00:54:03;;;;;;;;;;;;;;;17.35;nan;100317.78;4970369;28;19922;-86
2023/10/29 00:56:30;;;;;;;;;;;;;;;17.36;nan;100305.84;4968627;28;19953;-86
2023/10/29 00:58:57;;;;;;;;;;;;;;;17.41;nan;100316.53;4967172;28;19926;-86
2023/10/29 01:01:22;;;;;;;;;;;;;;;17.44;nan;100310.56;4968739;28;19929;-86
2023/10/29 01:03:50;;;;;;;;;;;;;;;17.39;nan;100296.28;4967157;28;19926;-87
2023/10/29 01:06:19;;;;;;;;;;;;;;;17.41;nan;100294.09;4967520;28;20451;-86
2023/10/29 01:08:45;;;;;;;;;;;;;;;17.36;nan;100286.88;4966295;28;19948;-86
2023/10/29 01:11:10;;;;;;;;;;;;;;;17.38;nan;100295.50;4969681;28;20457;-86
2023/10/29 01:13:38;;;;;;;;;;;;;;;17.39;nan;100299.81;4964748;28;19964;-86
2023/10/29 01:16:07;;;;;;;;;;;;;;;17.39;nan;100290.88;4966595;28;19992;-86
2023/10/29 01:18:33;;;;;;;;;;;;;;;17.39;nan;100288.16;4965261;28;19961;-86
2023/10/29 01:21:00;;;;;;;;;;;;;;;17.35;nan;100289.88;4966440;28;20378;-86
2023/10/29 01:23:29;;;;;;;;;;;;;;;17.38;nan;100294.69;4968862;28;19961;-85
2023/10/29 01:26:00;;;;;;;;;;;;;;;17.42;nan;100295.72;4968368;28;20285;-86
2023/10/29 01:28:28;;;;;;;;;;;;;;;17.39;nan;100291.69;4970525;28;19918;-86
2023/10/29 01:30:56;;;;;;;;;;;;;;;17.38;nan;100300.13;4967668;28;19933;-87
2023/10/29 01:33:26;;;;;;;;;;;;;;;17.34;nan;100293.72;4969193;28;20371;-85
2023/10/29 01:35:53;;;;;;;;;;;;;;;17.32;nan;100296.72;4974323;28;19926;-86
2023/10/29 01:38:18;;;;;;;;;;;;;;;17.28;nan;100289.50;4976075;28;19926;-85
2023/10/29 01:40:47;;;;;;;;;;;;;;;17.24;nan;100293.94;4967414;28;19925;-87
2023/10/29 01:43:25;;;;;;;;;;;;;;;17.27;nan;100282.50;4966122;28;19976;-86
2023/10/29 01:45:58;;;;;;;;;;;;;;;17.26;nan;100270.88;4969269;28;19948;-86
2023/10/29 01:48:27;;;;;;;;;;;;;;;17.26;nan;100272.78;4968655;28;20343;-86
2023/10/29 01:51:08;;;;;;;;;;;;;;;17.25;nan;100279.31;4971329;28;19976;-86
2023/10/29 01:53:42;;;;;;;;;;;;;;;17.19;nan;100273.97;4968705;28;19921;-86
2023/10/29 01:56:10;;;;;;;;;;;;;;;17.17;nan;100256.44;4967083;28;20353;-86
2023/10/29 01:58:46;;;;;;;;;;;;;;;17.16;nan;100261.03;4971317;28;19984;-86
2023/10/29 02:01:16;;;;;;;;;;;;;;;17.16;nan;100255.63;4973017;28;19925;-86
2023/10/29 02:03:44;;;;;;;;;;;;;;;17.19;nan;100255.03;4969322;28;20396;-86
2023/10/29 02:06:16;;;;;;;;;;;;;;;17.21;nan;100260.13;4974907;28;19930;-87
2023/10/29 02:08:53;;;;;;;;;;;;;;;17.12;nan;100254.66;4971322;28;19918;-87
2023/10/29 02:11:19;;;;;;;;;;;;;;;17.09;nan;100249.84;4973842;28;19976;-87
2023/10/29 02:13:49;;;;;;;;;;;;;;;17.04;nan;100243.72;4974422;28;19935;-86
2023/10/29 02:16:25;;;;;;;;;;;;;;;17.01;nan;100247.84;4973324;28;19929;-86
2023/10/29 02:19:03;;;;;;;;;;;;;;;17.05;nan;100243.41;4972383;28;20353;-86
2023/10/29 02:21:33;;;;;;;;;;;;;;;17.09;nan;100238.22;4973379;28;19926;-85
2023/10/29 02:24:01;;;;;;;;;;;;;;;17.14;nan;100232.69;4971880;28;20004;-86
2023/10/29 02:26:28;;;;;;;;;;;;;;;17.12;nan;100224.06;4974139;28;20013;-86
2023/10/29 02:28:57;;;;;;;;;;;;;;;17.13;nan;100215.66;4972230;28;19921;-86
2023/10/29 02:31:27;;;;;;;;;;;;;;;17.13;nan;100222.97;4972581;28;20315;-86
2023/10/29 02:33:58;;;;;;;;;;;;;;;17.06;nan;100228.81;4972826;28;19998;-84
2023/10/29 02:36:27;;;;;;;;;;;;;;;17.08;nan;100233.91;4974127;28;19992;-86
2023/10/29 02:38:53;;;;;;;;;;;;;;;17.06;nan;100239.63;4958899;28;20021;-86
2023/10/29 02:41:19;;;;;;;;;;;;;;;17.07;nan;100245.84;4970046;28;20112;-86
2023/10/29 02:43:47;;;;;;;;;;;;;;;17.03;nan;100252.94;4973766;28;20020;-86
2023/10/29 02:46:17;;;;;;;;;;;;;;;17.03;nan;100272.69;4974902;28;19929;-85
2023/10/29 02:48:52;;;;;;;;;;;;;;;16.95;nan;100276.13;4970613;28;20085;-86
2023/10/29 02:51:22;;;;;;;;;;;;;;;16.88;nan;100281.13;4970983;28;19930;-86
2023/10/29 02:53:51;;;;;;;;;;;;;;;16.82;nan;100277.72;4970899;28;19925;-86
2023/10/29 02:56:17;;;;;;;;;;;;;;;16.79;nan;100275.63;4979649;28;19968;-86
2023/10/29 02:58:44;;;;;;;;;;;;;;;16.78;nan;100273.22;4971778;28;20100;-86
2023/10/29 03:01:15;;;;;;;;;;;;;;;16.82;nan;100271.50;4973061;28;19926;-86
2023/10/29 03:03:42;;;;;;;;;;;;;;;16.88;nan;100260.28;4976967;28;19929;-87
2023/10/29 03:06:10;;;;;;;;;;;;;;;16.91;nan;100264.28;4971915;28;19926;-86
2023/10/29 03:08:39;;;;;;;;;;;;;;;16.89;nan;100255.69;4970683;28;19918;-86
2023/10/29 03:11:07;;;;;;;;;;;;;;;16.89;nan;100261.91;4969513;28;19968;-86
2023/10/29 03:13:36;;;;;;;;;;;;;;;16.90;nan;100244.56;4971058;28;19924;-86
2023/10/29 03:16:03;;;;;;;;;;;;;;;16.90;nan;100251.88;4969384;28;19929;-86
2023/10/29 03:18:29;;;;;;;;;;;;;;;16.88;nan;100243.25;4970041;28;20044;-85
2023/10/29 03:20:55;;;;;;;;;;;;;;;16.89;nan;100231.31;4967441;28;20012;-86
2023/10/29 03:23:21;;;;;;;;;;;;;;;16.90;nan;100231.03;4973782;28;19933;-86
2023/10/29 03:25:48;;;;;;;;;;;;;;;16.93;nan;100237.72;4971149;28;20402;-86
2023/10/29 03:28:17;;;;;;;;;;;;;;;16.83;nan;100241.44;4969387;28;19957;-86
2023/10/29 03:30:47;;;;;;;;;;;;;;;16.83;nan;100246.03;4970365;28;19926;-86
2023/10/29 03:33:16;;;;;;;;;;;;;;;16.80;nan;100239.34;4974105;28;19926;-86
2023/10/29 03:35:46;;;;;;;;;;;;;;;16.78;nan;100232.63;4973106;28;20006;-86
2023/10/29 03:38:15;;;;;;;;;;;;;;;16.80;nan;100238.53;4970943;28;20275;-86
2023/10/29 03:40:45;;;;;;;;;;;;;;;16.79;nan;100242.34;4974170;28;19933;-86
2023/10/29 03:43:12;;;;;;;;;;;;;;;16.82;nan;100242.53;4971645;28;20231;-86
2023/10/29 03:45:39;;;;;;;;;;;;;;;16.84;nan;100250.34;4974694;28;19941;-86
2023/10/29 03:48:06;;;;;;;;;;;;;;;16.79;nan;100239.66;4971363;28;19928;-87
2023/10/29 03:50:32;;;;;;;;;;;;;;;16.83;nan;100248.75;4972828;28;19928;-86
2023/10/29 03:52:57;;;;;;;;;;;;;;;16.82;nan;100241.75;4987472;28;19918;-86
2023/10/29 03:55:25;;;;;;;;;;;;;;;16.77;nan;100239.16;4973659;28;19918;-85
2023/10/29 03:58:04;;;;;;;;;;;;;;;16.74;nan;100232.44;4970416;28;19925;-86
2023/10/29 04:00:30;;;;;;;;;;;;;;;16.73;nan;100235.44;4967417;28;19924;-85
2023/10/29 04:02:57;;;;;;;;;;;;;;;16.73;nan;100228.13;4970117;28;19961;-85
2023/10/29 04:05:27;;;;;;;;;;;;;;;16.75;nan;100225.13;4971755;28;19922;-85
2023/10/29 04:07:55;;;;;;;;;;;;;;;16.71;nan;100218.72;4971250;28;19932;-86
2023/10/29 04:10:25;;;;;;;;;;;;;;;16.73;nan;100219.22;4975191;28;20392;-86
2023/10/29 04:12:54;;;;;;;;;;;;;;;16.74;nan;100216.22;4968805;28;20502;-86
2023/10/29 04:15:22;;;;;;;;;;;;;;;16.75;nan;100207.00;4974398;28;20005;-86
2023/10/29 04:17:49;;;;;;;;;;;;;;;16.77;nan;100202.06;4968193;28;19992;-85
2023/10/29 04:20:16;;;;;;;;;;;;;;;16.79;nan;100201.75;4970833;28;20461;-84
2023/10/29 04:22:44;;;;;;;;;;;;;;;16.79;nan;100202.56;4968837;28;19926;-86
2023/10/29 04:25:22;;;;;;;;;;;;;;;16.79;nan;100207.19;4973029;28;20346;-86
2023/10/29 04:27:51;;;;;;;;;;;;;;;16.78;nan;100202.88;4970957;28;19940;-86
2023/10/29 04:30:18;;;;;;;;;;;;;;;16.79;nan;100204.47;4967614;28;19926;-86
2023/10/29 04:32:44;;;;;;;;;;;;;;;16.79;nan;100202.56;4970855;28;19922;-85
2023/10/29 04:35:10;;;;;;;;;;;;;;;16.77;nan;100199.38;4973015;28;20020;-86
2023/10/29 04:37:35;;;;;;;;;;;;;;;16.77;nan;100203.97;4972751;28;19922;-85
2023/10/29 04:40:04;;;;;;;;;;;;;;;16.76;nan;100205.88;4969418;28;19922;-85
2023/10/29 04:42:31;;;;;;;;;;;;;;;16.72;nan;100196.78;4969510;28;19992;-85
2023/10/29 04:45:01;;;;;;;;;;;;;;;16.69;nan;100196.56;4970143;28;19929;-86
2023/10/29 04:47:28;;;;;;;;;;;;;;;16.70;nan;100188.16;4968482;28;20551;-85
2023/10/29 04:50:01;;;;;;;;;;;;;;;16.69;nan;100185.72;4968804;28;19926;-85
2023/10/29 04:52:30;;;;;;;;;;;;;;;16.59;nan;100176.72;4967926;28;20627;-85
2023/10/29 04:55:01;;;;;;;;;;;;;;;16.61;nan;100176.41;4968981;28;20325;-85
2023/10/29 04:57:28;;;;;;;;;;;;;;;16.62;nan;100173.41;4970228;28;20351;-85
2023/10/29 04:59:54;;;;;;;;;;;;;;;16.70;nan;100171.13;4968255;28;19949;-85
2023/10/29 05:02:19;;;;;;;;;;;;;;;16.71;nan;100151.91;4967829;28;19961;-85
2023/10/29 05:04:44;;;;;;;;;;;;;;;16.74;nan;100136.97;4966813;28;19922;-85
2023/10/29 05:07:14;;;;;;;;;;;;;;;16.70;nan;100134.06;4969106;28;20553;-85
2023/10/29 05:09:39;;;;;;;;;;;;;;;16.71;nan;100132.16;4970658;28;20069;-85
2023/10/29 05:12:07;;;;;;;;;;;;;;;16.68;nan;100120.00;4966815;28;20016;-86
2023/10/29 05:14:35;;;;;;;;;;;;;;;16.65;nan;100119.78;4967721;28;19925;-85
2023/10/29 05:17:02;;;;;;;;;;;;;;;16.66;nan;100111.38;4972076;28;20371;-86
2023/10/29 05:19:28;;;;;;;;;;;;;;;16.65;nan;100122.50;4966069;28;19964;-86
2023/10/29 05:21:53;;;;;;;;;;;;;;;16.59;nan;100111.81;4968307;28;19922;-86
2023/10/29 05:24:19;;;;;;;;;;;;;;;16.65;nan;100107.06;4971514;28;20330;-86
2023/10/29 05:26:44;;;;;;;;;;;;;;;16.66;nan;100105.16;4968022;28;20336;-86
2023/10/29 05:29:11;;;;;;;;;;;;;;;16.65;nan;100106.28;4967995;28;20625;-86
2023/10/29 05:31:38;;;;;;;;;;;;;;;16.66;nan;100099.75;4972165;28;20100;-85
2023/10/29 05:34:05;;;;;;;;;;;;;;;16.73;nan;100094.78;4967479;28;19918;-86
2023/10/29 05:36:32;;;;;;;;;;;;;;;16.71;nan;100100.50;4968098;28;19941;-84
2023/10/29 05:39:01;;;;;;;;;;;;;;;16.67;nan;100101.38;4969552;28;19918;-85
2023/10/29 05:41:27;;;;;;;;;;;;;;;16.62;nan;100097.66;4971869;28;19998;-85
2023/10/29 05:43:53;;;;;;;;;;;;;;;16.56;nan;100084.56;4970964;28;19922;-85
2023/10/29 05:46:24;;;;;;;;;;;;;;;16.59;nan;100090.16;4969262;28;19929;-85
2023/10/29 05:48:50;;;;;;;;;;;;;;;16.65;nan;100082.72;4970522;28;19925;-86
2023/10/29 05:51:19;;;;;;;;;;;;;;;16.66;nan;100072.72;4968217;28;20342;-85
2023/10/29 05:53:47;;;;;;;;;;;;;;;16.66;nan;100080.81;4969588;28;20174;-86
2023/10/29 05:56:18;;;;;;;;;;;;;;;16.64;nan;100089.25;4966969;28;19925;-86
2023/10/29 05:58:44;;;;;;;;;;;;;;;16.63;nan;100091.16;4971114;28;19929;-86
2023/10/29 06:01:10;;;;;;;;;;;;;;;16.64;nan;100081.13;4968114;28;20239;-85
2023/10/29 06:03:38;;;;;;;;;;;;;;;16.66;nan;100081.63;4968134;28;19961;-86
2023/10/29 06:06:05;;;;;;;;;;;;;;;16.60;nan;100088.25;4969122;28;19926;-86
2023/10/29 06:08:31;;;;;;;;;;;;;;;16.63;nan;100079.53;4973009;28;19988;-86
2023/10/29 06:10:59;;;;;;;;;;;;;;;16.70;nan;100079.97;4971381;28;20349;-86
2023/10/29 06:13:26;;;;;;;;;;;;;;;16.70;nan;100079.97;4966012;28;19925;-85
2023/10/29 06:15:52;;;;;;;;;;;;;;;16.69;nan;100072.94;4971044;28;19922;-85
2023/10/29 06:18:21;;;;;;;;;;;;;;;16.74;nan;100070.13;4966925;28;20433;-86
2023/10/29 06:20:51;;;;;;;;;;;;;;;16.77;nan;100085.75;4972531;28;19922;-86
2023/10/29 06:23:18;;;;;;;;;;;;;;;16.75;nan;100084.47;4968062;28;20087;-85
2023/10/29 06:25:45;;;;;;;;;;;;;;;16.76;nan;100072.53;4968636;28;20425;-86
2023/10/29 06:28:18;;;;;;;;;;;;;;;16.71;nan;100070.75;4969922;28;20295;-85
2023/10/29 06:30:47;;;;;;;;;;;;;;;16.73;nan;100073.16;4966944;28;19918;-85
2023/10/29 06:33:16;;;;;;;;;;;;;;;16.70;nan;100073.75;4970270;28;20449;-86
2023/10/29 06:35:43;;;;;;;;;;;;;;;16.69;nan;100072.13;4972384;28;19921;-85
2023/10/29 06:38:10;;;;;;;;;;;;;;;16.73;nan;100073.16;4968364;28;20013;-85
2023/10/29 06:40:40;;;;;;;;;;;;;;;16.73;nan;100062.31;4969160;28;20464;-86
2023/10/29 06:43:09;;;;;;;;;;;;;;;16.72;nan;100060.72;4972756;28;19922;-85
2023/10/29 06:45:39;;;;;;;;;;;;;;;16.69;nan;100061.31;4973735;28;19937;-86
2023/10/29 06:48:05;;;;;;;;;;;;;;;16.70;nan;100050.22;4974250;28;19925;-86
2023/10/29 06:50:32;;;;;;;;;;;;;;;16.68;nan;100043.47;4973609;28;19921;-86
2023/10/29 06:53:02;;;;;;;;;;;;;;;16.64;nan;100054.09;4974408;28;19926;-85
2023/10/29 06:55:27;;;;;;;;;;;;;;;16.65;nan;100060.28;4975884;28;20468;-86
2023/10/29 06:57:53;;;;;;;;;;;;;;;16.65;nan;100054.88;4971260;28;19925;-86
2023/10/29 07:00:19;;;;;;;;;;;;;;;16.67;nan;100060.81;4968155;28;19917;-86
2023/10/29 07:02:45;;;;;;;;;;;;;;;16.78;nan;100052.19;4972374;28;19917;-86
2023/10/29 07:05:11;;;;;;;;;;;;;;;16.90;nan;100051.66;4971305;28;19997;-85
2023/10/29 07:07:36;;;;;;;;;;;;;;;16.94;nan;100049.13;4971281;28;19936;-85
2023/10/29 07:10:03;;;;;;;;;;;;;;;16.95;nan;100043.41;4969937;28;20437;-84
2023/10/29 07:12:35;;;;;;;;;;;;;;;17.05;nan;100053.16;4970769;28;20013;-86
2023/10/29 07:15:02;;;;;;;;;;;;;;;17.07;nan;100048.25;4972551;28;19918;-86
2023/10/29 07:17:28;;;;;;;;;;;;;;;16.88;nan;100053.84;4968300;28;19980;-86
2023/10/29 07:19:54;;;;;;;;;;;;;;;16.85;nan;100049.03;4970795;28;19921;-85
2023/10/29 07:22:20;;;;;;;;;;;;;;;16.92;nan;100042.09;4971870;28;20008;-84
2023/10/29 07:24:47;;;;;;;;;;;;;;;16.94;nan;100041.00;4970731;28;19929;-86
2023/10/29 07:27:12;;;;;;;;;;;;;;;16.92;nan;100041.31;4968241;28;19926;-86
2023/10/29 07:29:38;;;;;;;;;;;;;;;16.95;nan;100040.69;4967539;28;20378;-85
2023/10/29 07:32:04;;;;;;;;;;;;;;;16.90;nan;100035.41;4968042;28;20009;-85
2023/10/29 07:34:30;;;;;;;;;;;;;;;16.78;nan;100027.03;4961243;28;20271;-86
2023/10/29 07:36:59;;;;;;;;;;;;;;;16.76;nan;100029.25;4959357;28;19948;-86
2023/10/29 07:39:31;;;;;;;;;;;;;;;16.73;nan;100017.13;4963211;28;20047;-85
2023/10/29 07:41:58;;;;;;;;;;;;;;;16.76;nan;100021.94;4964722;28;20376;-86
2023/10/29 07:44:26;;;;;;;;;;;;;;;16.73;nan;100017.13;4971986;28;19961;-86
2023/10/29 07:46:56;;;;;;;;;;;;;;;16.69;nan;100020.75;4973982;28;19988;-85
2023/10/29 07:49:21;;;;;;;;;;;;;;;16.69;nan;100028.84;4967999;28;19922;-85
2023/10/29 07:51:50;;;;;;;;;;;;;;;16.66;nan;100027.53;4970324;28;19933;-86
2023/10/29 07:54:20;;;;;;;;;;;;;;;16.70;nan;100027.78;4968357;28;20779;-86
2023/10/29 07:56:49;;;;;;;;;;;;;;;16.74;nan;100018.72;4964182;28;20413;-86
2023/10/29 07:59:14;;;;;;;;;;;;;;;16.76;nan;100027.34;4965718;28;19929;-85
2023/10/29 08:01:40;;;;;;;;;;;;;;;16.79;nan;100020.50;4964242;28;19925;-85
2023/10/29 08:04:07;;;;;;;;;;;;;;;16.82;nan;100009.06;4968293;28;21083;-86
2023/10/29 08:06:37;;;;;;;;;;;;;;;16.79;nan;100015.09;4966584;28;20004;-86
2023/10/29 08:09:08;;;;;;;;;;;;;;;16.86;nan;100015.47;4966641;28;19936;-85
2023/10/29 08:11:35;;;;;;;;;;;;;;;16.89;nan;100012.16;4967073;28;20375;-85
2023/10/29 08:14:01;;;;;;;;;;;;;;;16.84;nan;100002.25;4966310;28;19933;-85
2023/10/29 08:16:34;;;;;;;;;;;;;;;16.86;nan;99999.22;4965572;28;20381;-85
2023/10/29 08:19:00;;;;;;;;;;;;;;;16.87;nan;100000.81;4969522;28;19968;-86
2023/10/29 08:21:26;;;;;;;;;;;;;;;16.94;nan;99995.78;4968839;28;20138;-86
2023/10/29 08:24:50;;;;;;;;;;;;;;;16.97;54.92;100000.59;5074593;27;19925;-85
2023/10/29 08:27:16;;;;;;;;;;;;;;;16.99;55.09;100009.19;5071788;28;19921;-85
2023/10/29 08:29:43;;;;;;;;;;;;;;;16.99;54.96;100008.41;5069620;28;20289;-85
2023/10/29 08:32:08;;;;;;;;;;;;;;;17.05;54.92;100007.16;5072488;28;20202;-85
2023/10/29 08:34:34;;;;;;;;;;;;;;;17.07;54.86;100008.47;5069020;28;19920;-85
2023/10/29 08:36:59;;;;;;;;;;;;;;;17.10;54.88;99997.03;5070785;28;19960;-85
2023/10/29 08:39:25;;;;;;;;;;;;;;;17.18;54.86;99990.03;5074023;28;20035;-85
2023/10/29 08:41:50;;;;;;;;;;;;;;;17.30;54.59;100000.31;5073003;28;19924;-85
2023/10/29 08:44:19;;;;;;;;;;;;;;;17.24;54.58;100005.06;5072774;28;20315;-85
2023/10/29 08:46:44;;;;;;;;;;;;;;;17.24;54.53;100015.09;5075059;28;19951;-86
2023/10/29 08:49:11;;;;;;;;;;;;;;;17.22;54.75;100004.56;5072000;28;20483;-86
2023/10/29 08:51:36;;;;;;;;;;;;;;;17.30;54.65;100008.44;5072582;28;20010;-86
2023/10/29 08:54:02;;;;;;;;;;;;;;;17.31;54.79;100005.41;5068680;28;20396;-86
2023/10/29 08:56:29;;;;;;;;;;;;;;;17.30;54.49;100003.81;5073348;28;20388;-86
2023/10/29 08:58:54;;;;;;;;;;;;;;;17.25;54.93;99998.53;5069560;28;19928;-86
2023/10/29 09:01:20;;;;;;;;;;;;;;;17.26;54.84;99988.50;5074867;28;20067;-85
2023/10/29 09:03:45;;;;;;;;;;;;;;;17.31;54.68;99982.94;5071959;28;19921;-85
2023/10/29 09:06:12;;;;;;;;;;;;;;;17.22;54.99;99962.03;5071512;28;20518;-85
2023/10/29 09:08:38;;;;;;;;;;;;;;;17.24;54.85;99961.75;5071949;28;19973;-86
2023/10/29 09:11:04;;;;;;;;;;;;;;;17.26;55.00;99961.44;5068372;28;19986;-85
2023/10/29 09:13:30;;;;;;;;;;;;;;;17.30;54.71;99963.19;5075768;28;20404;-87
2023/10/29 09:15:55;;;;;;;;;;;;;;;17.30;54.90;99978.66;5071261;28;19920;-86
2023/10/29 09:18:21;;;;;;;;;;;;;;;17.30;54.54;99978.66;5093838;27;20423;-86
2023/10/29 09:20:46;;;;;;;;;;;;;;;17.33;54.60;99983.44;5074413;28;19928;-89
2023/10/29 09:23:14;;;;;;;;;;;;;;;17.26;54.85;99985.81;5070585;28;20352;-84
2023/10/29 09:25:42;;;;;;;;;;;;;;;17.26;54.91;99974.97;5074063;28;20015;-85
2023/10/29 09:28:07;;;;;;;;;;;;;;;17.29;55.00;99977.06;5069932;28;19924;-86
2023/10/29 09:30:33;;;;;;;;;;;;;;;17.40;54.82;99951.28;5080456;28;20502;-86
2023/10/29 09:32:58;;;;;;;;;;;;;;;17.42;54.89;99963.44;5071668;28;19964;-87
2023/10/29 09:35:24;;;;;;;;;;;;;;;17.56;54.74;99954.38;5059913;28;19952;-87
2023/10/29 09:37:49;;;;;;;;;;;;;;;17.61;54.34;99971.31;5061812;28;19920;-86
2023/10/29 09:40:15;;;;;;;;;;;;;;;17.69;54.76;99967.03;5060860;28;20281;-86
2023/10/29 09:42:50;;;;;;;;;;;;;;;17.70;54.35;99987.59;5060580;28;20031;-86
2023/10/29 09:45:18;;;;;;;;;;;;;;;17.69;54.21;99967.84;5061421;28;20283;-87
2023/10/29 09:47:43;;;;;;;;;;;;;;;17.67;54.48;99969.25;5059153;28;19922;-86
2023/10/29 09:50:09;;;;;;;;;;;;;;;17.69;54.32;99975.97;5057993;28;20002;-86
2023/10/29 09:52:35;;;;;;;;;;;;;;;17.76;54.20;99981.72;5063423;28;19927;-86
2023/10/29 09:55:01;;;;;;;;;;;;;;;17.77;54.17;99987.94;5057694;28;19917;-86
2023/10/29 09:57:27;;;;;;;;;;;;;;;17.77;54.26;99987.94;5057974;28;19942;-87
2023/10/29 09:59:52;;;;;;;;;;;;;;;17.87;54.30;99986.84;5057033;28;19927;-86
2023/10/29 10:02:17;;;;;;;;;;;;;;;17.96;53.90;99993.91;5061195;28;19921;-89
2023/10/29 10:04:43;;;;;;;;;;;;;;;18.03;53.78;99979.88;5063644;28;19929;-84
2023/10/29 10:07:10;;;;;;;;;;;;;;;18.10;54.03;99974.78;5058422;28;20278;-79
2023/10/29 10:10:10;;;;;;;;;;;;;;;18.22;53.70;99964.13;5059544;28;19920;-87
2023/10/29 10:12:54;;;;;;;;;;;;;;;18.32;53.77;99957.59;5023241;28;19917;-87
2023/10/29 10:15:19;;;;;;;;;;;;;;;18.37;53.64;99962.84;5062687;28;19920;-87
2023/10/29 10:17:46;;;;;;;;;;;;;;;18.39;53.54;99966.06;5060975;28;20320;-85
2023/10/29 10:20:12;;;;;;;;;;;;;;;18.48;53.49;99966.03;5060009;28;20025;-86
2023/10/29 10:22:37;;;;;;;;;;;;;;;18.57;53.41;99972.28;5061370;28;20587;-88
2023/10/29 10:25:03;;;;;;;;;;;;;;;18.62;53.38;99974.81;5058437;28;19916;-85
2023/10/29 10:27:29;;;;;;;;;;;;;;;18.65;53.26;99969.56;5055117;28;20012;-85
2023/10/29 10:29:54;;;;;;;;;;;;;;;18.65;53.33;99966.06;5054266;28;19921;-86
2023/10/29 10:32:26;;;;;;;;;;;;;;;18.67;53.55;99959.22;5058547;28;20419;-85
2023/10/29 10:34:51;;;;;;;;;;;;;;;18.71;53.31;99962.88;5062441;28;19925;-85
2023/10/29 10:37:17;;;;;;;;;;;;;;;18.77;53.16;99958.06;5058741;28;20396;-83
2023/10/29 10:39:42;;;;;;;;;;;;;;;18.81;53.04;99947.38;5059162;28;20444;-84
2023/10/29 10:42:07;;;;;;;;;;;;;;;18.85;52.87;99954.56;5061645;28;19927;-85
2023/10/29 10:44:35;;;;;;;;;;;;;;;18.85;53.08;99949.13;5062041;28;19935;-85
2023/10/29 10:47:02;;;;;;;;;;;;;;;18.88;52.95;99951.19;5056194;28;19964;-85
2023/10/29 10:49:31;;;;;;;;;;;;;;;18.86;52.41;99937.16;5062865;28;19924;-85
2023/10/29 10:51:58;;;;;;;;;;;;;;;18.86;52.43;99936.38;5063584;28;19967;-85
2023/10/29 10:54:24;;;;;;;;;;;;;;;18.84;52.03;99927.72;5061692;28;20137;-85
2023/10/29 10:56:50;;;;;;;;;;;;;;;18.81;52.17;99923.75;5060601;28;19931;-84
2023/10/29 10:59:16;;;;;;;;;;;;;;;18.82;52.03;99911.75;5059770;28;19928;-84
2023/10/29 11:01:42;;;;;;;;;;;;;;;18.81;52.06;99917.50;5062714;28;20021;-85
2023/10/29 11:04:08;;;;;;;;;;;;;;;18.83;51.85;99907.13;5061101;28;19931;-85
2023/10/29 11:06:37;;;;;;;;;;;;;;;18.86;51.68;99892.94;5062289;28;19924;-87
2023/10/29 11:09:05;;;;;;;;;;;;;;;18.89;51.57;99890.38;5060053;28;19947;-85
2023/10/29 11:11:35;;;;;;;;;;;;;;;18.92;51.53;99888.91;5062194;28;19925;-86
2023/10/29 11:14:14;;;;;;;;;;;;;;;18.92;51.50;99897.84;5059635;28;19974;-86
2023/10/29 11:16:45;;;;;;;;;;;;;;;18.95;51.29;99924.34;5060412;28;20012;-85
2023/10/29 11:19:29;;;;;;;;;;;;;;;18.98;51.40;99955.47;5059025;28;19928;-84
2023/10/29 11:22:13;;;;;;;;;;;;;;;18.96;51.07;99944.94;5062737;28;20517;-86
2023/10/29 11:24:39;;;;;;;;;;;;;;;19.04;51.55;99953.41;5056321;28;19935;-86
2023/10/29 11:27:23;;;;;;;;;;;;;;;19.11;51.37;99956.41;5059047;28;19920;-85
2023/10/29 11:29:48;;;;;;;;;;;;;;;19.14;51.41;99942.97;5063620;28;19924;-86
2023/10/29 11:32:26;;;;;;;;;;;;;;;19.22;51.14;99934.03;5059275;28;19916;-85
2023/10/29 11:35:11;;;;;;;;;;;;;;;19.28;51.05;99937.34;5061864;28;19925;-84
2023/10/29 11:37:37;;;;;;;;;;;;;;;19.30;50.54;99932.38;5057721;28;20679;-85
2023/10/29 11:40:21;;;;;;;;;;;;;;;19.30;50.73;99935.09;5063306;28;20434;-85
2023/10/29 11:42:46;;;;;;;;;;;;;;;19.25;50.58;99940.72;5060360;28;19925;-85
2023/10/29 11:45:30;;;;;;;;;;;;;;;19.28;50.56;99953.63;5063930;28;19927;-84
2023/10/29 11:48:11;;;;;;;;;;;;;;;19.30;50.27;99945.97;5062111;28;19952;-86
2023/10/29 11:50:37;;;;;;;;;;;;;;;19.25;50.46;99951.56;5061727;28;19931;-84
2023/10/29 11:53:02;;;;;;;;;;;;;;;19.28;50.35;99943.56;5062013;28;19954;-85
2023/10/29 11:55:42;;;;;;;;;;;;;;;19.25;50.36;99946.16;5061939;28;19968;-85
2023/10/29 11:58:07;;;;;;;;;;;;;;;19.23;50.25;99930.19;5060626;28;19964;-85
2023/10/29 12:00:38;;;;;;;;;;;;;;;19.23;50.27;99932.09;5065791;28;19956;-84
2023/10/29 12:03:03;;;;;;;;;;;;;;;19.27;50.48;99931.13;5060561;28;19982;-85
2023/10/29 12:05:28;;;;;;;;;;;;;;;19.30;50.43;99929.66;5058741;28;20520;-86
2023/10/29 12:07:57;;;;;;;;;;;;;;;19.28;50.33;99921.06;5061866;28;19986;-86
2023/10/29 12:10:23;;;;;;;;;;;;;;;19.26;50.31;99932.25;5062483;28;19927;-85
2023/10/29 12:12:55;;;;;;;;;;;;;;;19.27;50.37;99933.84;5060516;28;19920;-85
2023/10/29 12:15:20;;;;;;;;;;;;;;;19.27;50.32;99922.19;5056944;28;20846;-85
2023/10/29 12:17:46;;;;;;;;;;;;;;;19.33;50.29;99921.66;5058033;28;19916;-85
2023/10/29 12:20:25;;;;;;;;;;;;;;;19.34;50.19;99919.72;5057573;28;19973;-86
2023/10/29 12:22:54;;;;;;;;;;;;;;;19.38;50.58;99919.88;5059998;28;21750;-85
2023/10/29 12:25:21;;;;;;;;;;;;;;;19.40;50.55;99929.31;5060528;28;19920;-85
2023/10/29 12:27:47;;;;;;;;;;;;;;;19.44;50.59;99930.25;5055732;28;20471;-85
2023/10/29 12:30:31;;;;;;;;;;;;;;;19.53;50.18;99933.69;5059417;28;19924;-84
2023/10/29 12:33:16;;;;;;;;;;;;;;;19.54;50.25;99935.31;5075323;28;20402;-87
2023/10/29 12:35:42;;;;;;;;;;;;;;;19.52;50.16;99932.13;5057312;28;20338;-87
2023/10/29 12:38:09;;;;;;;;;;;;;;;19.52;50.35;99926.69;5062570;28;19920;-86
2023/10/29 12:40:35;;;;;;;;;;;;;;;19.51;50.35;99930.53;5063057;28;19943;-87
2023/10/29 12:43:00;;;;;;;;;;;;;;;19.54;50.14;99931.81;5059658;28;20662;-87
2023/10/29 12:45:26;;;;;;;;;;;;;;;19.47;50.33;99932.31;5061135;28;20289;-86
2023/10/29 12:48:07;;;;;;;;;;;;;;;19.54;50.19;99931.81;5060122;28;19931;-86
2023/10/29 12:50:48;;;;;;;;;;;;;;;19.54;50.35;99929.09;5057561;28;19917;-87
2023/10/29 12:53:27;;;;;;;;;;;;;;;19.52;50.13;99931.31;5061953;28;20522;-87
2023/10/29 12:55:53;;;;;;;;;;;;;;;19.52;50.33;99913.09;5057904;28;20774;-87
2023/10/29 12:58:18;;;;;;;;;;;;;;;19.55;50.53;99909.75;5066484;28;20010;-86
2023/10/29 13:00:44;;;;;;;;;;;;;;;19.64;50.52;99917.06;5056661;28;20357;-86